Time;durP1;ratioP1;P1;durP2;ratioP2;P2;SDS_P1;SDS_P2;PMS_P1;PMS_P2;Temp;Humidity;BMP_temperature;BMP_pressure;BME280_temperature;BME280_humidity;BME280_pressure;Samples;Min_cycle;Max_cycle;Signal;HPM_P1;HPM_P2
2023/10/24 00:09:31;;;;;;;;;;;10.30;99.90;;;;;;21240014;27;19915;-80
2023/10/24 00:19:31;;;;;;;;;;;10.20;99.90;;;;;;21234917;27;19912;-80
2023/10/24 00:29:32;;;;;;;;;;;10.00;99.90;;;;;;21269207;27;19915;-80
2023/10/24 00:39:32;;;;;;;;;;;9.80;99.90;;;;;;21324813;27;19918;-80
2023/10/24 00:49:33;;;;;;;;;;;9.80;99.90;;;;;;21328506;27;19976;-79
2023/10/24 00:59:34;;;;;;;;;;;9.80;99.90;;;;;;21336125;27;19912;-79
2023/10/24 01:09:35;;;;;;;;;;;9.90;99.90;;;;;;21319863;27;19915;-81
2023/10/24 01:19:35;;;;;;;;;;;10.00;99.90;;;;;;21329246;27;20384;-80
2023/10/24 01:29:37;;;;;;;;;;;9.90;99.90;;;;;;21301523;27;19916;-80
2023/10/24 01:39:37;;;;;;;;;;;10.00;99.90;;;;;;21315067;27;19918;-80
2023/10/24 01:49:38;;;;;;;;;;;10.10;99.90;;;;;;21304969;27;19923;-80
2023/10/24 01:59:39;;;;;;;;;;;10.20;99.90;;;;;;21305800;27;19911;-80
2023/10/24 02:09:39;;;;;;;;;;;10.30;99.90;;;;;;21324850;27;19915;-80
2023/10/24 02:19:40;;;;;;;;;;;10.30;99.90;;;;;;21300543;27;19916;-80
2023/10/24 02:29:41;;;;;;;;;;;10.30;99.90;;;;;;21307204;27;20338;-80
2023/10/24 02:39:41;;;;;;;;;;;10.20;99.90;;;;;;21306007;27;19915;-80
2023/10/24 02:49:42;;;;;;;;;;;10.10;99.90;;;;;;21332209;27;19967;-80
2023/10/24 02:59:43;;;;;;;;;;;10.20;99.90;;;;;;21331765;27;19911;-80
2023/10/24 03:09:43;;;;;;;;;;;10.00;99.90;;;;;;21292300;27;19915;-80
2023/10/24 03:19:44;;;;;;;;;;;10.00;99.90;;;;;;21297458;27;19919;-80
2023/10/24 03:29:46;;;;;;;;;;;9.90;99.90;;;;;;21311699;27;19915;-80
2023/10/24 03:39:46;;;;;;;;;;;10.00;99.90;;;;;;21298378;27;19911;-81
2023/10/24 03:49:47;;;;;;;;;;;10.10;99.90;;;;;;21309043;27;19915;-80
2023/10/24 03:59:48;;;;;;;;;;;10.00;99.90;;;;;;21316780;27;19918;-80
2023/10/24 04:09:48;;;;;;;;;;;9.80;99.90;;;;;;21312276;27;19956;-80
2023/10/24 04:19:49;;;;;;;;;;;9.80;99.90;;;;;;21343051;27;19915;-80
2023/10/24 04:29:50;;;;;;;;;;;9.60;99.90;;;;;;21351063;27;19922;-79
2023/10/24 04:39:50;;;;;;;;;;;9.70;99.90;;;;;;21422332;27;20465;-80
2023/10/24 04:49:51;;;;;;;;;;;9.80;99.90;;;;;;21388721;27;19919;-80
2023/10/24 04:59:51;;;;;;;;;;;9.70;99.90;;;;;;21412545;27;19911;-79
2023/10/24 05:09:52;;;;;;;;;;;9.60;99.90;;;;;;21371014;27;19915;-79
2023/10/24 05:19:53;;;;;;;;;;;9.60;99.90;;;;;;21415948;27;19911;-80
2023/10/24 05:29:53;;;;;;;;;;;9.50;99.90;;;;;;21371043;27;19922;-80
2023/10/24 05:39:54;;;;;;;;;;;9.50;99.90;;;;;;21322972;27;20488;-81
2023/10/24 05:49:55;;;;;;;;;;;9.50;99.90;;;;;;21327765;27;19916;-81
2023/10/24 05:59:56;;;;;;;;;;;9.60;99.90;;;;;;21302753;27;19918;-80
2023/10/24 06:09:56;;;;;;;;;;;9.60;99.90;;;;;;21300461;27;19980;-79
2023/10/24 06:19:57;;;;;;;;;;;9.70;99.90;;;;;;21283270;27;19960;-80
2023/10/24 06:29:57;;;;;;;;;;;9.80;99.90;;;;;;21234466;27;20313;-82
2023/10/24 06:39:58;;;;;;;;;;;9.90;99.90;;;;;;21199668;27;19974;-79
2023/10/24 06:49:59;;;;;;;;;;;9.90;99.90;;;;;;21190302;27;19998;-80
2023/10/24 06:59:59;;;;;;;;;;;10.00;99.90;;;;;;21201025;28;19912;-80
2023/10/24 07:10:00;;;;;;;;;;;10.00;99.90;;;;;;21203780;27;20378;-80
2023/10/24 07:20:01;;;;;;;;;;;10.00;99.90;;;;;;21220367;28;19919;-81
2023/10/24 07:30:01;;;;;;;;;;;10.00;99.90;;;;;;21275004;27;20265;-80
2023/10/24 07:40:02;;;;;;;;;;;10.00;99.90;;;;;;21371433;27;20337;-78
2023/10/24 07:50:03;;;;;;;;;;;10.20;99.90;;;;;;21396395;27;19921;-77
2023/10/24 08:00:06;;;;;;;;;;;10.20;99.90;;;;;;21406158;27;19911;-77
2023/10/24 08:10:13;;;;;;;;;;;10.40;99.90;;;;;;21383657;27;19914;-79
2023/10/24 08:20:13;;;;;;;;;;;10.40;99.90;;;;;;21377020;27;19917;-78
2023/10/24 08:30:14;;;;;;;;;;;10.40;99.90;;;;;;21372027;27;19940;-79
2023/10/24 08:40:15;;;;;;;;;;;10.60;99.90;;;;;;21372408;27;19935;-79
2023/10/24 08:50:16;;;;;;;;;;;10.50;99.90;;;;;;21401149;27;20001;-79
2023/10/24 09:00:17;;;;;;;;;;;10.50;99.90;;;;;;21377522;27;19954;-78
2023/10/24 09:10:17;;;;;;;;;;;10.60;99.90;;;;;;21387231;27;19938;-78
2023/10/24 09:20:21;;;;;;;;;;;10.70;99.90;;;;;;21367917;27;19955;-79
2023/10/24 09:30:23;;;;;;;;;;;10.70;99.90;;;;;;21313202;27;19919;-79
2023/10/24 09:40:33;;;;;;;;;;;10.80;99.90;;;;;;21206471;27;19911;-77
2023/10/24 09:50:33;;;;;;;;;;;10.90;99.90;;;;;;21196474;27;19919;-78
2023/10/24 10:00:34;;;;;;;;;;;10.90;99.90;;;;;;21203822;27;20004;-78
2023/10/24 10:10:36;;;;;;;;;;;11.00;99.90;;;;;;21193148;27;19984;-78
2023/10/24 10:20:40;;;;;;;;;;;11.10;99.90;;;;;;21185765;27;19911;-78
2023/10/24 10:30:51;;;;;;;;;;;11.30;99.90;;;;;;21229841;27;20320;-79
2023/10/24 10:40:52;;;;;;;;;;;11.40;99.90;;;;;;21290973;27;19915;-79
2023/10/24 10:50:53;;;;;;;;;;;11.40;99.90;;;;;;21278588;27;19973;-78
2023/10/24 11:00:53;;;;;;;;;;;11.40;99.90;;;;;;21277868;27;20017;-78
2023/10/24 11:10:54;;;;;;;;;;;11.50;99.90;;;;;;21296874;27;19918;-78
2023/10/24 11:20:55;;;;;;;;;;;11.50;99.90;;;;;;21276906;27;20151;-79
2023/10/24 11:30:56;;;;;;;;;;;11.60;99.90;;;;;;21269360;27;19915;-79
2023/10/24 11:40:56;;;;;;;;;;;11.80;99.90;;;;;;21291434;27;19910;-78
2023/10/24 11:51:01;;;;;;;;;;;11.90;99.90;;;;;;21266992;27;19922;-78
2023/10/24 12:01:02;;;;;;;;;;;11.90;99.90;;;;;;21293688;27;19923;-78
2023/10/24 12:11:02;;;;;;;;;;;11.90;99.90;;;;;;21297582;27;19968;-79
2023/10/24 12:21:03;;;;;;;;;;;12.00;99.90;;;;;;21275509;27;19992;-77
2023/10/24 12:31:04;;;;;;;;;;;11.90;99.90;;;;;;21275806;27;19966;-77
2023/10/24 12:41:04;;;;;;;;;;;12.00;99.90;;;;;;21270826;27;20389;-78
2023/10/24 12:51:05;;;;;;;;;;;12.00;99.90;;;;;;21290880;27;19938;-78
2023/10/24 13:01:06;;;;;;;;;;;11.90;99.90;;;;;;21276662;27;19947;-79
2023/10/24 13:11:06;;;;;;;;;;;11.90;99.90;;;;;;21275622;27;20009;-78
2023/10/24 13:21:07;;;;;;;;;;;11.90;99.90;;;;;;21285935;27;19911;-78
2023/10/24 13:31:08;;;;;;;;;;;11.90;99.90;;;;;;21321145;27;19919;-78
2023/10/24 13:41:09;;;;;;;;;;;11.90;99.90;;;;;;21346526;27;19911;-77
2023/10/24 13:51:09;;;;;;;;;;;11.90;99.90;;;;;;21337925;27;19965;-78
2023/10/24 14:01:10;;;;;;;;;;;11.80;99.90;;;;;;21346358;27;19918;-78
2023/10/24 14:11:11;;;;;;;;;;;11.90;99.90;;;;;;21355856;27;19914;-79
2023/10/24 14:21:14;;;;;;;;;;;11.90;99.90;;;;;;21379185;27;20201;-79
2023/10/24 14:31:14;;;;;;;;;;;12.10;99.90;;;;;;21402374;27;20438;-80
2023/10/24 14:41:15;;;;;;;;;;;12.30;99.90;;;;;;21397135;27;19911;-78
2023/10/24 14:51:16;;;;;;;;;;;13.10;99.90;;;;;;21360666;27;19977;-78
2023/10/24 15:01:16;;;;;;;;;;;13.00;99.90;;;;;;21335217;27;19911;-82
2023/10/24 15:11:17;;;;;;;;;;;12.90;99.90;;;;;;21395249;27;21124;-82
2023/10/24 15:21:18;;;;;;;;;;;12.80;99.90;;;;;;21364817;27;19919;-78
2023/10/24 15:31:18;;;;;;;;;;;12.80;99.90;;;;;;21386128;27;19922;-79
2023/10/24 15:41:19;;;;;;;;;;;12.90;99.90;;;;;;21390160;27;19911;-82
2023/10/24 15:51:21;;;;;;;;;;;12.70;99.90;;;;;;21381842;27;19915;-83
2023/10/24 16:01:25;;;;;;;;;;;12.50;99.90;;;;;;21413516;27;19921;-84
2023/10/24 16:11:26;;;;;;;;;;;12.30;99.90;;;;;;21416002;27;19915;-82
2023/10/24 16:21:26;;;;;;;;;;;12.00;99.90;;;;;;21390816;27;19953;-81
2023/10/24 16:31:28;;;;;;;;;;;12.00;99.90;;;;;;21329039;27;20250;-85
2023/10/24 16:41:31;;;;;;;;;;;12.10;99.90;;;;;;21316024;27;20010;-83
2023/10/24 16:51:31;;;;;;;;;;;12.00;99.90;;;;;;21399885;27;19915;-82
2023/10/24 17:01:32;;;;;;;;;;;11.80;99.90;;;;;;21357441;27;19919;-83
2023/10/24 17:11:32;;;;;;;;;;;11.70;99.90;;;;;;21313402;27;19915;-80
2023/10/24 17:21:33;;;;;;;;;;;11.60;99.90;;;;;;21340798;27;19912;-80
2023/10/24 17:31:34;;;;;;;;;;;11.70;99.90;;;;;;21324938;27;19922;-82
2023/10/24 17:41:34;;;;;;;;;;;11.60;99.90;;;;;;21304640;27;20301;-80
2023/10/24 17:51:35;;;;;;;;;;;11.60;99.90;;;;;;21380988;27;19923;-81
2023/10/24 18:01:35;;;;;;;;;;;11.60;99.90;;;;;;21373117;27;19919;-79
2023/10/24 18:11:36;;;;;;;;;;;11.60;99.90;;;;;;21400353;27;19936;-80
2023/10/24 18:21:37;;;;;;;;;;;11.60;99.90;;;;;;21336527;27;19915;-80
2023/10/24 18:31:38;;;;;;;;;;;11.50;99.90;;;;;;21335108;27;19957;-80
2023/10/24 18:41:38;;;;;;;;;;;11.40;99.90;;;;;;21338192;27;19921;-80
2023/10/24 18:51:39;;;;;;;;;;;11.40;99.90;;;;;;21356024;27;19972;-81
2023/10/24 19:01:40;;;;;;;;;;;11.40;99.90;;;;;;21336446;27;19911;-81
2023/10/24 19:11:40;;;;;;;;;;;11.30;99.90;;;;;;21327457;27;19919;-81
2023/10/24 19:21:41;;;;;;;;;;;11.20;99.90;;;;;;21338863;27;19911;-81
2023/10/24 19:31:42;;;;;;;;;;;11.20;99.90;;;;;;21379663;27;19919;-81
2023/10/24 19:41:43;;;;;;;;;;;11.10;99.90;;;;;;21388024;27;19937;-80
2023/10/24 19:51:44;;;;;;;;;;;11.10;99.90;;;;;;21373965;27;20301;-81
2023/10/24 20:01:46;;;;;;;;;;;11.00;99.90;;;;;;21380595;27;19934;-80
2023/10/24 20:11:47;;;;;;;;;;;11.00;99.90;;;;;;21394735;27;19922;-81
2023/10/24 20:21:48;;;;;;;;;;;10.90;99.90;;;;;;21385665;27;19915;-80
2023/10/24 20:31:48;;;;;;;;;;;10.70;99.90;;;;;;21357899;27;20582;-80
2023/10/24 20:41:49;;;;;;;;;;;10.60;99.90;;;;;;21336532;27;19911;-79
2023/10/24 20:51:50;;;;;;;;;;;10.60;99.90;;;;;;21371748;27;19915;-80
2023/10/24 21:01:50;;;;;;;;;;;10.80;99.90;;;;;;21367043;27;19912;-82
2023/10/24 21:11:51;;;;;;;;;;;10.80;99.90;;;;;;21345910;27;20362;-80
2023/10/24 21:21:52;;;;;;;;;;;10.80;99.90;;;;;;21359348;27;19912;-81
2023/10/24 21:31:52;;;;;;;;;;;10.70;99.90;;;;;;21360861;27;19923;-81
2023/10/24 21:41:55;;;;;;;;;;;10.60;99.90;;;;;;21381601;27;19915;-80
2023/10/24 21:51:56;;;;;;;;;;;10.50;99.90;;;;;;21349735;27;19918;-80
2023/10/24 22:01:56;;;;;;;;;;;10.40;99.90;;;;;;21361822;27;19911;-81
2023/10/24 22:11:57;;;;;;;;;;;10.40;99.90;;;;;;21360547;27;19964;-80
2023/10/24 22:21:58;;;;;;;;;;;10.40;99.90;;;;;;21359521;27;20307;-81
2023/10/24 22:31:58;;;;;;;;;;;10.30;99.90;;;;;;21348600;27;20285;-81
2023/10/24 22:41:59;;;;;;;;;;;10.20;99.90;;;;;;21358022;27;19918;-81
2023/10/24 22:52:00;;;;;;;;;;;10.00;99.90;;;;;;21355669;27;19950;-81
2023/10/24 23:02:00;;;;;;;;;;;9.90;99.90;;;;;;21346219;27;19911;-79
2023/10/24 23:12:02;;;;;;;;;;;9.90;99.90;;;;;;21354856;27;20412;-80
2023/10/24 23:22:03;;;;;;;;;;;9.90;99.90;;;;;;21361759;27;19982;-81
2023/10/24 23:32:03;;;;;;;;;;;9.90;99.90;;;;;;21335669;27;19915;-80
2023/10/24 23:42:04;;;;;;;;;;;10.00;99.90;;;;;;21370538;27;20006;-80
2023/10/24 23:52:05;;;;;;;;;;;9.90;99.90;;;;;;21333095;27;19911;-80
